sensor_id;sensor_type;location;lat;lon;timestamp;P1;durP1;ratioP1;P2;durP2;ratioP2
41687;SDS011;27371;42.686;23.362;2023-06-26T00:03:16;18.15;;;16.25;;
41687;SDS011;27371;42.686;23.362;2023-06-26T00:05:41;18.02;;;15.18;;
41687;SDS011;27371;42.686;23.362;2023-06-26T00:08:07;16.58;;;14.82;;
41687;SDS011;27371;42.686;23.362;2023-06-26T00:10:33;17.25;;;14.98;;
41687;SDS011;27371;42.686;23.362;2023-06-26T00:12:59;18.08;;;15.13;;
41687;SDS011;27371;42.686;23.362;2023-06-26T00:15:25;17.50;;;14.52;;
41687;SDS011;27371;42.686;23.362;2023-06-26T00:17:51;16.77;;;13.63;;
41687;SDS011;27371;42.686;23.362;2023-06-26T00:20:16;15.57;;;13.45;;
41687;SDS011;27371;42.686;23.362;2023-06-26T00:22:43;14.90;;;13.00;;
41687;SDS011;27371;42.686;23.362;2023-06-26T00:25:10;18.73;;;13.50;;
41687;SDS011;27371;42.686;23.362;2023-06-26T00:27:35;14.88;;;13.02;;
41687;SDS011;27371;42.686;23.362;2023-06-26T00:30:03;16.60;;;11.63;;
41687;SDS011;27371;42.686;23.362;2023-06-26T00:32:28;15.82;;;11.98;;
41687;SDS011;27371;42.686;23.362;2023-06-26T00:34:54;14.07;;;11.95;;
41687;SDS011;27371;42.686;23.362;2023-06-26T00:37:19;15.27;;;12.20;;
41687;SDS011;27371;42.686;23.362;2023-06-26T00:39:46;14.55;;;12.23;;
41687;SDS011;27371;42.686;23.362;2023-06-26T00:42:12;14.75;;;12.02;;
41687;SDS011;27371;42.686;23.362;2023-06-26T00:44:56;13.60;;;12.23;;
41687;SDS011;27371;42.686;23.362;2023-06-26T00:47:21;15.23;;;11.60;;
41687;SDS011;27371;42.686;23.362;2023-06-26T00:49:47;14.15;;;12.13;;
41687;SDS011;27371;42.686;23.362;2023-06-26T00:52:12;12.90;;;11.23;;
41687;SDS011;27371;42.686;23.362;2023-06-26T00:54:38;12.35;;;10.68;;
41687;SDS011;27371;42.686;23.362;2023-06-26T00:57:04;14.63;;;12.05;;
41687;SDS011;27371;42.686;23.362;2023-06-26T00:59:30;14.32;;;11.52;;
41687;SDS011;27371;42.686;23.362;2023-06-26T01:01:55;13.00;;;11.02;;
41687;SDS011;27371;42.686;23.362;2023-06-26T01:04:21;13.05;;;11.23;;
41687;SDS011;27371;42.686;23.362;2023-06-26T01:06:46;12.93;;;10.70;;
41687;SDS011;27371;42.686;23.362;2023-06-26T01:09:20;15.90;;;11.32;;
41687;SDS011;27371;42.686;23.362;2023-06-26T01:11:47;12.77;;;10.73;;
41687;SDS011;27371;42.686;23.362;2023-06-26T01:14:13;12.18;;;10.73;;
41687;SDS011;27371;42.686;23.362;2023-06-26T01:16:39;14.43;;;10.43;;
41687;SDS011;27371;42.686;23.362;2023-06-26T01:19:09;10.80;;;9.68;;
41687;SDS011;27371;42.686;23.362;2023-06-26T01:21:40;13.38;;;9.80;;
41687;SDS011;27371;42.686;23.362;2023-06-26T01:24:17;11.05;;;9.95;;
41687;SDS011;27371;42.686;23.362;2023-06-26T01:26:52;11.00;;;9.48;;
41687;SDS011;27371;42.686;23.362;2023-06-26T01:29:18;13.30;;;10.15;;
41687;SDS011;27371;42.686;23.362;2023-06-26T01:31:46;10.77;;;9.65;;
41687;SDS011;27371;42.686;23.362;2023-06-26T01:34:17;11.00;;;9.13;;
41687;SDS011;27371;42.686;23.362;2023-06-26T01:36:44;10.82;;;8.95;;
41687;SDS011;27371;42.686;23.362;2023-06-26T01:39:12;12.13;;;9.70;;
41687;SDS011;27371;42.686;23.362;2023-06-26T01:41:40;9.55;;;8.63;;
41687;SDS011;27371;42.686;23.362;2023-06-26T01:46:42;10.80;;;9.70;;
41687;SDS011;27371;42.686;23.362;2023-06-26T01:51:59;14.38;;;9.48;;
41687;SDS011;27371;42.686;23.362;2023-06-26T01:54:35;12.20;;;8.93;;
41687;SDS011;27371;42.686;23.362;2023-06-26T01:57:08;10.57;;;9.38;;
41687;SDS011;27371;42.686;23.362;2023-06-26T01:59:35;12.68;;;9.27;;
41687;SDS011;27371;42.686;23.362;2023-06-26T02:02:02;13.43;;;9.60;;
41687;SDS011;27371;42.686;23.362;2023-06-26T02:04:28;13.55;;;9.75;;
41687;SDS011;27371;42.686;23.362;2023-06-26T02:06:53;11.07;;;9.82;;
41687;SDS011;27371;42.686;23.362;2023-06-26T02:09:20;11.25;;;10.10;;
41687;SDS011;27371;42.686;23.362;2023-06-26T02:11:45;11.52;;;9.75;;
41687;SDS011;27371;42.686;23.362;2023-06-26T02:14:10;12.95;;;9.95;;
41687;SDS011;27371;42.686;23.362;2023-06-26T02:16:37;10.70;;;9.45;;
41687;SDS011;27371;42.686;23.362;2023-06-26T02:19:03;11.85;;;9.75;;
41687;SDS011;27371;42.686;23.362;2023-06-26T02:21:28;11.15;;;9.73;;
41687;SDS011;27371;42.686;23.362;2023-06-26T02:23:54;14.43;;;9.80;;
41687;SDS011;27371;42.686;23.362;2023-06-26T02:26:19;11.48;;;9.77;;
41687;SDS011;27371;42.686;23.362;2023-06-26T02:28:45;12.40;;;9.93;;
41687;SDS011;27371;42.686;23.362;2023-06-26T02:31:11;11.32;;;10.20;;
41687;SDS011;27371;42.686;23.362;2023-06-26T02:33:36;11.57;;;10.38;;
41687;SDS011;27371;42.686;23.362;2023-06-26T02:36:02;11.02;;;9.98;;
41687;SDS011;27371;42.686;23.362;2023-06-26T02:38:27;11.15;;;10.05;;
41687;SDS011;27371;42.686;23.362;2023-06-26T02:40:53;13.32;;;11.18;;
41687;SDS011;27371;42.686;23.362;2023-06-26T02:43:18;12.20;;;10.95;;
41687;SDS011;27371;42.686;23.362;2023-06-26T02:45:44;12.93;;;11.05;;
41687;SDS011;27371;42.686;23.362;2023-06-26T02:48:09;13.50;;;10.90;;
41687;SDS011;27371;42.686;23.362;2023-06-26T02:50:35;11.82;;;10.38;;
41687;SDS011;27371;42.686;23.362;2023-06-26T02:53:00;13.75;;;11.50;;
41687;SDS011;27371;42.686;23.362;2023-06-26T02:55:26;14.32;;;12.43;;
41687;SDS011;27371;42.686;23.362;2023-06-26T02:57:52;14.63;;;13.23;;
41687;SDS011;27371;42.686;23.362;2023-06-26T03:00:17;13.95;;;12.55;;
41687;SDS011;27371;42.686;23.362;2023-06-26T03:02:43;14.45;;;12.65;;
41687;SDS011;27371;42.686;23.362;2023-06-26T03:05:09;14.88;;;13.40;;
41687;SDS011;27371;42.686;23.362;2023-06-26T03:07:34;14.93;;;13.32;;
41687;SDS011;27371;42.686;23.362;2023-06-26T03:10:00;15.13;;;13.55;;
41687;SDS011;27371;42.686;23.362;2023-06-26T03:12:25;15.43;;;13.82;;
41687;SDS011;27371;42.686;23.362;2023-06-26T03:14:51;15.23;;;13.88;;
41687;SDS011;27371;42.686;23.362;2023-06-26T03:17:17;15.25;;;13.32;;
41687;SDS011;27371;42.686;23.362;2023-06-26T03:19:42;14.95;;;13.48;;
41687;SDS011;27371;42.686;23.362;2023-06-26T03:22:08;15.27;;;13.70;;
41687;SDS011;27371;42.686;23.362;2023-06-26T03:24:33;15.00;;;13.35;;
41687;SDS011;27371;42.686;23.362;2023-06-26T03:26:59;14.20;;;12.80;;
41687;SDS011;27371;42.686;23.362;2023-06-26T03:29:25;15.45;;;14.05;;
41687;SDS011;27371;42.686;23.362;2023-06-26T03:31:50;14.20;;;12.82;;
41687;SDS011;27371;42.686;23.362;2023-06-26T03:34:16;14.68;;;13.27;;
41687;SDS011;27371;42.686;23.362;2023-06-26T03:36:41;14.55;;;12.52;;
41687;SDS011;27371;42.686;23.362;2023-06-26T03:39:07;14.95;;;13.57;;
41687;SDS011;27371;42.686;23.362;2023-06-26T03:41:33;14.50;;;13.00;;
41687;SDS011;27371;42.686;23.362;2023-06-26T03:43:59;15.07;;;13.07;;
41687;SDS011;27371;42.686;23.362;2023-06-26T03:46:26;15.88;;;13.52;;
41687;SDS011;27371;42.686;23.362;2023-06-26T03:48:51;14.68;;;13.18;;
41687;SDS011;27371;42.686;23.362;2023-06-26T03:51:17;15.38;;;13.88;;
41687;SDS011;27371;42.686;23.362;2023-06-26T03:53:42;15.77;;;14.10;;
41687;SDS011;27371;42.686;23.362;2023-06-26T03:56:08;15.65;;;13.85;;
41687;SDS011;27371;42.686;23.362;2023-06-26T03:58:34;14.75;;;13.27;;
41687;SDS011;27371;42.686;23.362;2023-06-26T04:00:59;16.02;;;14.32;;
41687;SDS011;27371;42.686;23.362;2023-06-26T04:03:25;15.07;;;13.57;;
41687;SDS011;27371;42.686;23.362;2023-06-26T04:05:51;15.65;;;13.35;;
41687;SDS011;27371;42.686;23.362;2023-06-26T04:08:16;14.63;;;13.07;;
41687;SDS011;27371;42.686;23.362;2023-06-26T04:10:42;14.98;;;13.45;;
41687;SDS011;27371;42.686;23.362;2023-06-26T04:13:10;15.18;;;12.80;;
41687;SDS011;27371;42.686;23.362;2023-06-26T04:15:37;15.93;;;13.75;;
41687;SDS011;27371;42.686;23.362;2023-06-26T04:18:02;14.18;;;12.88;;
41687;SDS011;27371;42.686;23.362;2023-06-26T04:20:28;14.23;;;12.77;;
41687;SDS011;27371;42.686;23.362;2023-06-26T04:22:53;13.20;;;11.85;;
41687;SDS011;27371;42.686;23.362;2023-06-26T04:25:19;14.02;;;11.63;;
41687;SDS011;27371;42.686;23.362;2023-06-26T04:27:44;13.65;;;12.10;;
41687;SDS011;27371;42.686;23.362;2023-06-26T04:30:10;13.38;;;11.43;;
41687;SDS011;27371;42.686;23.362;2023-06-26T04:32:37;12.65;;;11.35;;
41687;SDS011;27371;42.686;23.362;2023-06-26T04:35:03;12.73;;;11.52;;
41687;SDS011;27371;42.686;23.362;2023-06-26T04:37:28;14.95;;;11.68;;
41687;SDS011;27371;42.686;23.362;2023-06-26T04:39:54;15.30;;;12.77;;
41687;SDS011;27371;42.686;23.362;2023-06-26T04:42:19;14.73;;;12.05;;
41687;SDS011;27371;42.686;23.362;2023-06-26T04:44:46;15.55;;;11.80;;
41687;SDS011;27371;42.686;23.362;2023-06-26T04:47:12;12.85;;;11.40;;
41687;SDS011;27371;42.686;23.362;2023-06-26T04:49:40;13.00;;;11.70;;
41687;SDS011;27371;42.686;23.362;2023-06-26T04:52:08;14.00;;;11.65;;
41687;SDS011;27371;42.686;23.362;2023-06-26T04:54:33;13.70;;;10.77;;
41687;SDS011;27371;42.686;23.362;2023-06-26T04:56:59;13.60;;;12.15;;
41687;SDS011;27371;42.686;23.362;2023-06-26T04:59:25;12.82;;;11.50;;
41687;SDS011;27371;42.686;23.362;2023-06-26T05:01:51;13.23;;;11.50;;
41687;SDS011;27371;42.686;23.362;2023-06-26T05:04:16;17.73;;;12.02;;
41687;SDS011;27371;42.686;23.362;2023-06-26T05:06:42;12.95;;;11.55;;
41687;SDS011;27371;42.686;23.362;2023-06-26T05:09:07;12.43;;;10.98;;
41687;SDS011;27371;42.686;23.362;2023-06-26T05:11:33;13.10;;;11.38;;
41687;SDS011;27371;42.686;23.362;2023-06-26T05:13:58;13.63;;;11.73;;
41687;SDS011;27371;42.686;23.362;2023-06-26T05:16:24;12.45;;;11.25;;
41687;SDS011;27371;42.686;23.362;2023-06-26T05:18:49;12.73;;;11.32;;
41687;SDS011;27371;42.686;23.362;2023-06-26T05:21:15;13.00;;;11.75;;
41687;SDS011;27371;42.686;23.362;2023-06-26T05:23:42;16.70;;;11.70;;
41687;SDS011;27371;42.686;23.362;2023-06-26T05:26:09;13.00;;;11.55;;
41687;SDS011;27371;42.686;23.362;2023-06-26T05:28:35;14.65;;;11.68;;
41687;SDS011;27371;42.686;23.362;2023-06-26T05:31:02;12.75;;;11.35;;
41687;SDS011;27371;42.686;23.362;2023-06-26T05:33:30;11.70;;;10.50;;
41687;SDS011;27371;42.686;23.362;2023-06-26T05:35:59;12.30;;;11.02;;
41687;SDS011;27371;42.686;23.362;2023-06-26T05:38:28;11.57;;;10.50;;
41687;SDS011;27371;42.686;23.362;2023-06-26T05:40:54;17.40;;;10.77;;
41687;SDS011;27371;42.686;23.362;2023-06-26T05:43:20;12.93;;;11.55;;
41687;SDS011;27371;42.686;23.362;2023-06-26T05:45:46;16.98;;;11.57;;
41687;SDS011;27371;42.686;23.362;2023-06-26T05:48:15;12.27;;;11.10;;
41687;SDS011;27371;42.686;23.362;2023-06-26T05:50:41;14.07;;;10.90;;
41687;SDS011;27371;42.686;23.362;2023-06-26T05:53:08;11.73;;;10.52;;
41687;SDS011;27371;42.686;23.362;2023-06-26T05:55:33;11.15;;;10.05;;
41687;SDS011;27371;42.686;23.362;2023-06-26T05:57:59;11.80;;;10.13;;
41687;SDS011;27371;42.686;23.362;2023-06-26T06:00:26;15.18;;;10.40;;
41687;SDS011;27371;42.686;23.362;2023-06-26T06:02:52;13.80;;;9.68;;
41687;SDS011;27371;42.686;23.362;2023-06-26T06:05:19;11.63;;;10.48;;
41687;SDS011;27371;42.686;23.362;2023-06-26T06:07:45;11.43;;;10.18;;
41687;SDS011;27371;42.686;23.362;2023-06-26T06:10:11;14.65;;;10.65;;
41687;SDS011;27371;42.686;23.362;2023-06-26T06:12:36;10.60;;;9.23;;
41687;SDS011;27371;42.686;23.362;2023-06-26T06:15:02;11.13;;;9.07;;
41687;SDS011;27371;42.686;23.362;2023-06-26T06:17:27;11.50;;;10.32;;
41687;SDS011;27371;42.686;23.362;2023-06-26T06:19:53;10.23;;;9.23;;
41687;SDS011;27371;42.686;23.362;2023-06-26T06:22:19;12.65;;;8.63;;
41687;SDS011;27371;42.686;23.362;2023-06-26T06:24:44;11.75;;;8.75;;
41687;SDS011;27371;42.686;23.362;2023-06-26T06:27:10;12.57;;;9.70;;
41687;SDS011;27371;42.686;23.362;2023-06-26T06:29:35;9.95;;;8.27;;
41687;SDS011;27371;42.686;23.362;2023-06-26T06:32:01;9.63;;;8.27;;
41687;SDS011;27371;42.686;23.362;2023-06-26T06:34:27;14.07;;;9.07;;
41687;SDS011;27371;42.686;23.362;2023-06-26T06:36:52;11.95;;;9.18;;
41687;SDS011;27371;42.686;23.362;2023-06-26T06:39:18;10.32;;;8.23;;
41687;SDS011;27371;42.686;23.362;2023-06-26T06:41:43;9.75;;;8.45;;
41687;SDS011;27371;42.686;23.362;2023-06-26T06:44:09;9.50;;;8.52;;
41687;SDS011;27371;42.686;23.362;2023-06-26T06:46:34;11.63;;;7.68;;
41687;SDS011;27371;42.686;23.362;2023-06-26T06:49:00;8.13;;;7.28;;
41687;SDS011;27371;42.686;23.362;2023-06-26T06:51:26;9.90;;;8.15;;
41687;SDS011;27371;42.686;23.362;2023-06-26T06:53:51;8.40;;;7.57;;
41687;SDS011;27371;42.686;23.362;2023-06-26T06:56:17;7.55;;;6.85;;
41687;SDS011;27371;42.686;23.362;2023-06-26T06:58:43;10.70;;;7.53;;
41687;SDS011;27371;42.686;23.362;2023-06-26T07:01:11;8.00;;;7.10;;
41687;SDS011;27371;42.686;23.362;2023-06-26T07:03:36;8.02;;;6.80;;
41687;SDS011;27371;42.686;23.362;2023-06-26T07:06:02;8.93;;;6.32;;
41687;SDS011;27371;42.686;23.362;2023-06-26T07:08:28;9.60;;;6.63;;
41687;SDS011;27371;42.686;23.362;2023-06-26T07:10:54;7.20;;;6.50;;
41687;SDS011;27371;42.686;23.362;2023-06-26T07:13:21;10.73;;;5.93;;
41687;SDS011;27371;42.686;23.362;2023-06-26T07:15:47;7.93;;;6.57;;
41687;SDS011;27371;42.686;23.362;2023-06-26T07:18:13;7.03;;;6.30;;
41687;SDS011;27371;42.686;23.362;2023-06-26T07:20:39;11.63;;;6.82;;
41687;SDS011;27371;42.686;23.362;2023-06-26T07:23:04;7.60;;;6.47;;
41687;SDS011;27371;42.686;23.362;2023-06-26T07:25:29;7.45;;;6.22;;
41687;SDS011;27371;42.686;23.362;2023-06-26T07:27:55;7.68;;;6.38;;
41687;SDS011;27371;42.686;23.362;2023-06-26T07:30:21;8.18;;;5.68;;
41687;SDS011;27371;42.686;23.362;2023-06-26T07:32:46;6.18;;;5.53;;
41687;SDS011;27371;42.686;23.362;2023-06-26T07:35:12;5.32;;;4.82;;
41687;SDS011;27371;42.686;23.362;2023-06-26T07:37:37;7.05;;;5.05;;
41687;SDS011;27371;42.686;23.362;2023-06-26T07:40:03;6.03;;;5.03;;
41687;SDS011;27371;42.686;23.362;2023-06-26T07:42:29;6.93;;;4.10;;
41687;SDS011;27371;42.686;23.362;2023-06-26T07:44:54;6.82;;;5.07;;
41687;SDS011;27371;42.686;23.362;2023-06-26T07:47:20;7.35;;;5.65;;
41687;SDS011;27371;42.686;23.362;2023-06-26T07:49:45;6.72;;;4.75;;
41687;SDS011;27371;42.686;23.362;2023-06-26T07:52:11;5.35;;;4.43;;
41687;SDS011;27371;42.686;23.362;2023-06-26T07:54:37;6.85;;;4.57;;
41687;SDS011;27371;42.686;23.362;2023-06-26T07:57:03;4.28;;;3.78;;
41687;SDS011;27371;42.686;23.362;2023-06-26T07:59:34;5.90;;;4.07;;
41687;SDS011;27371;42.686;23.362;2023-06-26T08:01:59;4.55;;;4.15;;
41687;SDS011;27371;42.686;23.362;2023-06-26T08:04:26;8.95;;;4.95;;
41687;SDS011;27371;42.686;23.362;2023-06-26T08:06:54;5.63;;;4.95;;
41687;SDS011;27371;42.686;23.362;2023-06-26T08:09:23;5.72;;;3.95;;
41687;SDS011;27371;42.686;23.362;2023-06-26T08:11:49;5.90;;;3.83;;
41687;SDS011;27371;42.686;23.362;2023-06-26T08:14:15;8.15;;;4.05;;
41687;SDS011;27371;42.686;23.362;2023-06-26T08:16:41;5.18;;;4.32;;
41687;SDS011;27371;42.686;23.362;2023-06-26T08:19:07;5.80;;;4.20;;
41687;SDS011;27371;42.686;23.362;2023-06-26T08:21:33;7.18;;;5.03;;
41687;SDS011;27371;42.686;23.362;2023-06-26T08:23:59;6.63;;;4.45;;
41687;SDS011;27371;42.686;23.362;2023-06-26T08:26:25;6.80;;;5.05;;
41687;SDS011;27371;42.686;23.362;2023-06-26T08:28:51;6.32;;;4.00;;
41687;SDS011;27371;42.686;23.362;2023-06-26T08:31:16;6.75;;;4.72;;
41687;SDS011;27371;42.686;23.362;2023-06-26T08:33:42;5.10;;;4.25;;
41687;SDS011;27371;42.686;23.362;2023-06-26T08:36:08;7.13;;;4.40;;
41687;SDS011;27371;42.686;23.362;2023-06-26T08:38:33;8.18;;;4.93;;
41687;SDS011;27371;42.686;23.362;2023-06-26T08:40:59;5.25;;;3.97;;
41687;SDS011;27371;42.686;23.362;2023-06-26T08:43:25;5.50;;;3.95;;
41687;SDS011;27371;42.686;23.362;2023-06-26T08:45:52;6.80;;;4.35;;
41687;SDS011;27371;42.686;23.362;2023-06-26T08:48:20;7.68;;;4.28;;
41687;SDS011;27371;42.686;23.362;2023-06-26T08:50:48;4.18;;;3.78;;
41687;SDS011;27371;42.686;23.362;2023-06-26T08:53:33;4.72;;;3.97;;
41687;SDS011;27371;42.686;23.362;2023-06-26T08:55:59;5.05;;;3.58;;
41687;SDS011;27371;42.686;23.362;2023-06-26T08:58:26;5.18;;;4.35;;
41687;SDS011;27371;42.686;23.362;2023-06-26T09:00:52;9.25;;;3.83;;
41687;SDS011;27371;42.686;23.362;2023-06-26T09:03:20;7.72;;;3.92;;
41687;SDS011;27371;42.686;23.362;2023-06-26T09:05:46;4.28;;;3.42;;
41687;SDS011;27371;42.686;23.362;2023-06-26T09:08:12;4.40;;;3.95;;
41687;SDS011;27371;42.686;23.362;2023-06-26T09:10:38;4.68;;;4.15;;
41687;SDS011;27371;42.686;23.362;2023-06-26T09:13:04;4.95;;;3.83;;
41687;SDS011;27371;42.686;23.362;2023-06-26T09:15:37;7.32;;;3.85;;
41687;SDS011;27371;42.686;23.362;2023-06-26T09:18:04;6.60;;;3.63;;
41687;SDS011;27371;42.686;23.362;2023-06-26T09:20:30;6.05;;;4.22;;
41687;SDS011;27371;42.686;23.362;2023-06-26T09:22:58;7.07;;;3.65;;
41687;SDS011;27371;42.686;23.362;2023-06-26T09:25:24;4.75;;;3.85;;
41687;SDS011;27371;42.686;23.362;2023-06-26T09:27:49;4.90;;;3.15;;
41687;SDS011;27371;42.686;23.362;2023-06-26T09:30:18;6.00;;;3.08;;
41687;SDS011;27371;42.686;23.362;2023-06-26T09:32:44;4.03;;;3.63;;
41687;SDS011;27371;42.686;23.362;2023-06-26T09:35:10;8.20;;;6.65;;
41687;SDS011;27371;42.686;23.362;2023-06-26T09:37:36;7.20;;;4.10;;
41687;SDS011;27371;42.686;23.362;2023-06-26T09:40:03;7.22;;;3.90;;
41687;SDS011;27371;42.686;23.362;2023-06-26T09:42:29;9.57;;;4.20;;
41687;SDS011;27371;42.686;23.362;2023-06-26T09:44:56;7.22;;;4.53;;
41687;SDS011;27371;42.686;23.362;2023-06-26T09:47:25;7.63;;;3.47;;
41687;SDS011;27371;42.686;23.362;2023-06-26T09:49:50;5.88;;;4.15;;
41687;SDS011;27371;42.686;23.362;2023-06-26T09:52:17;7.13;;;3.80;;
41687;SDS011;27371;42.686;23.362;2023-06-26T09:54:44;8.35;;;4.00;;
41687;SDS011;27371;42.686;23.362;2023-06-26T09:57:17;5.22;;;3.70;;
41687;SDS011;27371;42.686;23.362;2023-06-26T09:59:44;4.97;;;3.72;;
41687;SDS011;27371;42.686;23.362;2023-06-26T10:02:10;4.40;;;3.83;;
41687;SDS011;27371;42.686;23.362;2023-06-26T10:04:37;4.93;;;4.20;;
41687;SDS011;27371;42.686;23.362;2023-06-26T10:07:06;5.40;;;3.35;;
41687;SDS011;27371;42.686;23.362;2023-06-26T10:09:35;4.05;;;3.40;;
41687;SDS011;27371;42.686;23.362;2023-06-26T10:12:06;4.00;;;3.53;;
41687;SDS011;27371;42.686;23.362;2023-06-26T10:14:39;5.47;;;4.25;;
41687;SDS011;27371;42.686;23.362;2023-06-26T10:17:09;7.80;;;4.40;;
41687;SDS011;27371;42.686;23.362;2023-06-26T10:19:37;4.40;;;3.97;;
41687;SDS011;27371;42.686;23.362;2023-06-26T10:22:03;4.88;;;4.22;;
41687;SDS011;27371;42.686;23.362;2023-06-26T10:24:31;6.00;;;4.10;;
41687;SDS011;27371;42.686;23.362;2023-06-26T10:27:04;4.88;;;4.07;;
41687;SDS011;27371;42.686;23.362;2023-06-26T10:29:35;5.28;;;4.20;;
41687;SDS011;27371;42.686;23.362;2023-06-26T10:32:02;5.63;;;4.35;;
41687;SDS011;27371;42.686;23.362;2023-06-26T10:34:29;8.25;;;4.88;;
41687;SDS011;27371;42.686;23.362;2023-06-26T10:36:59;5.70;;;4.53;;
41687;SDS011;27371;42.686;23.362;2023-06-26T10:39:26;7.25;;;5.28;;
41687;SDS011;27371;42.686;23.362;2023-06-26T10:41:54;7.18;;;5.05;;
41687;SDS011;27371;42.686;23.362;2023-06-26T10:44:20;7.22;;;4.38;;
41687;SDS011;27371;42.686;23.362;2023-06-26T10:49:20;4.68;;;4.18;;
41687;SDS011;27371;42.686;23.362;2023-06-26T10:51:49;8.23;;;5.20;;
41687;SDS011;27371;42.686;23.362;2023-06-26T10:54:16;5.95;;;4.53;;
41687;SDS011;27371;42.686;23.362;2023-06-26T10:56:47;5.60;;;4.47;;
41687;SDS011;27371;42.686;23.362;2023-06-26T10:59:21;5.60;;;4.45;;
41687;SDS011;27371;42.686;23.362;2023-06-26T11:07:17;12.93;;;5.30;;
41687;SDS011;27371;42.686;23.362;2023-06-26T11:10:02;6.50;;;5.55;;
41687;SDS011;27371;42.686;23.362;2023-06-26T11:12:43;11.32;;;7.57;;
41687;SDS011;27371;42.686;23.362;2023-06-26T11:15:13;7.30;;;5.20;;
41687;SDS011;27371;42.686;23.362;2023-06-26T11:17:40;10.75;;;6.32;;
41687;SDS011;27371;42.686;23.362;2023-06-26T11:20:08;8.45;;;5.78;;
41687;SDS011;27371;42.686;23.362;2023-06-26T11:22:38;9.10;;;5.25;;
41687;SDS011;27371;42.686;23.362;2023-06-26T11:25:04;5.07;;;4.57;;
41687;SDS011;27371;42.686;23.362;2023-06-26T11:27:32;7.20;;;4.35;;
41687;SDS011;27371;42.686;23.362;2023-06-26T11:30:02;4.80;;;4.40;;
41687;SDS011;27371;42.686;23.362;2023-06-26T11:32:33;4.95;;;4.00;;
41687;SDS011;27371;42.686;23.362;2023-06-26T11:35:26;4.50;;;3.95;;
41687;SDS011;27371;42.686;23.362;2023-06-26T11:37:59;4.35;;;3.92;;
41687;SDS011;27371;42.686;23.362;2023-06-26T11:40:29;5.97;;;4.05;;
41687;SDS011;27371;42.686;23.362;2023-06-26T11:42:58;3.85;;;3.45;;
41687;SDS011;27371;42.686;23.362;2023-06-26T11:45:31;5.88;;;3.85;;
41687;SDS011;27371;42.686;23.362;2023-06-26T11:47:57;4.20;;;3.75;;
41687;SDS011;27371;42.686;23.362;2023-06-26T11:50:23;5.57;;;3.95;;
41687;SDS011;27371;42.686;23.362;2023-06-26T11:52:55;5.20;;;4.22;;
41687;SDS011;27371;42.686;23.362;2023-06-26T11:55:22;5.88;;;4.05;;
41687;SDS011;27371;42.686;23.362;2023-06-26T11:57:49;6.28;;;3.85;;
41687;SDS011;27371;42.686;23.362;2023-06-26T12:00:15;6.75;;;4.40;;
41687;SDS011;27371;42.686;23.362;2023-06-26T12:02:43;5.68;;;4.40;;
41687;SDS011;27371;42.686;23.362;2023-06-26T12:05:10;6.38;;;4.45;;
41687;SDS011;27371;42.686;23.362;2023-06-26T12:07:36;7.60;;;4.53;;
41687;SDS011;27371;42.686;23.362;2023-06-26T12:10:02;9.00;;;4.63;;
41687;SDS011;27371;42.686;23.362;2023-06-26T12:12:30;6.22;;;4.28;;
41687;SDS011;27371;42.686;23.362;2023-06-26T12:14:56;4.78;;;4.38;;
41687;SDS011;27371;42.686;23.362;2023-06-26T12:17:23;7.30;;;4.50;;
41687;SDS011;27371;42.686;23.362;2023-06-26T12:19:51;8.30;;;4.47;;
41687;SDS011;27371;42.686;23.362;2023-06-26T12:22:18;5.28;;;4.13;;
41687;SDS011;27371;42.686;23.362;2023-06-26T12:24:44;6.57;;;4.45;;
41687;SDS011;27371;42.686;23.362;2023-06-26T12:27:12;5.78;;;4.32;;
41687;SDS011;27371;42.686;23.362;2023-06-26T12:29:39;4.00;;;3.60;;
41687;SDS011;27371;42.686;23.362;2023-06-26T12:32:10;6.75;;;4.32;;
41687;SDS011;27371;42.686;23.362;2023-06-26T12:34:36;7.45;;;4.20;;
41687;SDS011;27371;42.686;23.362;2023-06-26T12:37:09;4.45;;;3.92;;
41687;SDS011;27371;42.686;23.362;2023-06-26T12:39:54;6.03;;;4.18;;
41687;SDS011;27371;42.686;23.362;2023-06-26T12:42:24;6.55;;;4.25;;
41687;SDS011;27371;42.686;23.362;2023-06-26T12:44:51;7.05;;;4.20;;
41687;SDS011;27371;42.686;23.362;2023-06-26T12:47:22;5.45;;;4.15;;
41687;SDS011;27371;42.686;23.362;2023-06-26T12:49:50;8.95;;;4.82;;
41687;SDS011;27371;42.686;23.362;2023-06-26T12:52:16;7.82;;;4.32;;
41687;SDS011;27371;42.686;23.362;2023-06-26T12:54:44;6.65;;;4.25;;
41687;SDS011;27371;42.686;23.362;2023-06-26T12:57:11;8.02;;;4.50;;
41687;SDS011;27371;42.686;23.362;2023-06-26T12:59:39;4.90;;;4.40;;
41687;SDS011;27371;42.686;23.362;2023-06-26T13:02:05;5.80;;;4.50;;
41687;SDS011;27371;42.686;23.362;2023-06-26T13:04:32;7.63;;;3.95;;
41687;SDS011;27371;42.686;23.362;2023-06-26T13:06:58;6.72;;;4.43;;
41687;SDS011;27371;42.686;23.362;2023-06-26T13:09:24;8.43;;;5.50;;
41687;SDS011;27371;42.686;23.362;2023-06-26T13:11:51;7.00;;;4.80;;
41687;SDS011;27371;42.686;23.362;2023-06-26T13:14:19;4.88;;;4.38;;
41687;SDS011;27371;42.686;23.362;2023-06-26T13:16:44;5.05;;;4.15;;
41687;SDS011;27371;42.686;23.362;2023-06-26T13:19:10;8.13;;;5.00;;
41687;SDS011;27371;42.686;23.362;2023-06-26T13:21:37;5.15;;;4.50;;
41687;SDS011;27371;42.686;23.362;2023-06-26T13:24:03;5.43;;;4.25;;
41687;SDS011;27371;42.686;23.362;2023-06-26T13:26:29;10.73;;;4.50;;
41687;SDS011;27371;42.686;23.362;2023-06-26T13:28:55;6.55;;;4.40;;
41687;SDS011;27371;42.686;23.362;2023-06-26T13:31:21;5.22;;;4.43;;
41687;SDS011;27371;42.686;23.362;2023-06-26T13:33:47;5.55;;;4.93;;
41687;SDS011;27371;42.686;23.362;2023-06-26T13:36:19;6.00;;;4.13;;
41687;SDS011;27371;42.686;23.362;2023-06-26T13:38:44;4.95;;;4.05;;
41687;SDS011;27371;42.686;23.362;2023-06-26T13:41:10;5.70;;;4.07;;
41687;SDS011;27371;42.686;23.362;2023-06-26T13:43:36;6.90;;;4.32;;
41687;SDS011;27371;42.686;23.362;2023-06-26T13:46:02;6.40;;;4.25;;
41687;SDS011;27371;42.686;23.362;2023-06-26T13:48:28;5.55;;;3.70;;
41687;SDS011;27371;42.686;23.362;2023-06-26T13:50:54;6.40;;;4.60;;
41687;SDS011;27371;42.686;23.362;2023-06-26T13:53:20;5.65;;;4.18;;
41687;SDS011;27371;42.686;23.362;2023-06-26T13:55:46;8.10;;;4.07;;
41687;SDS011;27371;42.686;23.362;2023-06-26T13:58:11;6.50;;;4.20;;
41687;SDS011;27371;42.686;23.362;2023-06-26T14:00:38;6.15;;;4.35;;
41687;SDS011;27371;42.686;23.362;2023-06-26T14:03:04;4.63;;;3.60;;
41687;SDS011;27371;42.686;23.362;2023-06-26T14:05:32;5.15;;;4.40;;
41687;SDS011;27371;42.686;23.362;2023-06-26T14:08:04;5.57;;;4.00;;
41687;SDS011;27371;42.686;23.362;2023-06-26T14:10:30;8.82;;;4.30;;
41687;SDS011;27371;42.686;23.362;2023-06-26T14:12:58;4.28;;;3.88;;
41687;SDS011;27371;42.686;23.362;2023-06-26T14:15:24;7.53;;;4.18;;
41687;SDS011;27371;42.686;23.362;2023-06-26T14:17:49;6.40;;;3.95;;
41687;SDS011;27371;42.686;23.362;2023-06-26T14:20:16;8.43;;;4.50;;
41687;SDS011;27371;42.686;23.362;2023-06-26T14:22:42;6.28;;;4.32;;
41687;SDS011;27371;42.686;23.362;2023-06-26T14:25:11;5.32;;;4.20;;
41687;SDS011;27371;42.686;23.362;2023-06-26T14:27:38;7.22;;;4.28;;
41687;SDS011;27371;42.686;23.362;2023-06-26T14:30:07;6.38;;;4.20;;
41687;SDS011;27371;42.686;23.362;2023-06-26T14:32:34;5.10;;;4.43;;
41687;SDS011;27371;42.686;23.362;2023-06-26T14:35:00;8.40;;;4.72;;
41687;SDS011;27371;42.686;23.362;2023-06-26T14:37:26;6.22;;;4.70;;